Bryce Canyon, UT

6:24 PM MDT on September 01, 2015 (GMT -0600)
Bryce Canyon | | Change Station
CLOSE
Current Station
Airport
Location: Bryce Canyon,
Elevation: 7585 ft
Nearby Weather Stations

Elev 7585 ft 37.71 °N, 112.15 °W | Updated 31 minutes ago

Clear
Clear
76 °F
Feels Like 76 °F
N
13
Wind Variable Wind from SW

Today
High -- | Low -- °F
--% Chance of Precip.
Yesterday
High -- | Low -- °F
Precip. -- in
6:58 AM 7:58 PM
Waning Gibbous, 85% visible
Pressure 29.89 in
Visibility 10.0 miles
Clouds Clear
Dew Point 36 °F
Humidity 23%
Rainfall 0.00 in
Snow Depth Not available.
UV 2 out of 12
Pollen 7.20 out of 12
Air Quality Not available.
Flu Activity Not available.
METAR KBCE 012353Z AUTO 23011KT 10SM CLR 24/02 A3025 RMK AO2 LTG DSNT N AND NW SLP122 T02440022 10256 20206 56007
Pressure 29.89 in
Visibility 10.0 miles
Clouds Clear
Dew Point 36 °F
Humidity 23%
Rainfall 0.00 in
Snow Depth Not available.
UV 2 out of 12
Pollen 7.20 out of 12
Air Quality Not available.
Flu Activity Not available.
METAR KBCE 012353Z AUTO 23011KT 10SM CLR 24/02 A3025 RMK AO2 LTG DSNT N AND NW SLP122 T02440022 10256 20206 56007
Nowcast | as of 5:10 PM MDT on September 1, 2015

Scattered showers and thunderstorms will continue this evening over portions of south central Utah. The strongest storms at 500 PM were located just southeast of Bicknell...and southwest of Emery. Some of the stronger storms may produce locally heavy rain...small hail...gusty winds and dangerous lightning.

×

10-Day Weather Forecast

×

Almanac

Astronomy

Sep. 01, 2015 Rise Set
Actual Time
Civil Twilight
Nautical Twilight
Astronomical Twilight
Moon
Length of Visible Light
Length of Day
Tomorrow will be .
, % of the Moon is Illuminated

Today's Extremes

State Highs State Lows

Community

WunderPhotos

Upload Photos

1,851,657 photos uploaded!

WunderBlogs® & News

Nearby

Air Quality

  Air Quality AQ Index Pollutant
Not available.

Snow Depth

Station Depth Elevation

Earthquake Activity

City Distance Mag. Time & Date
Minimum magnitude displayed is 2.5.

Coastal Water Temperatures

Place Temperature

Stations

Nearby Weather Stations

Station Location Temp. Windchill Dew Point Humidity Wind Precip. Elev Updated Type